createdAt,value
2016-04-20T08:29:21.380Z,5349
2016-04-20T08:32:33.419Z,6023
2016-04-20T08:35:51.977Z,5057
2016-04-20T08:38:53.704Z,6899
2016-04-20T08:42:05.837Z,5724
2016-04-20T08:45:16.549Z,4072
2016-04-20T08:48:29.088Z,5215
2016-04-20T08:51:47.659Z,6434
2016-04-20T08:54:55.419Z,5787
2016-04-20T08:57:57.225Z,8946
2016-04-20T09:01:07.498Z,9685
2016-04-20T09:04:20.099Z,8491
2016-04-20T09:07:32.546Z,7405
2016-04-20T09:10:51.057Z,7182
2016-04-20T09:13:52.908Z,15552
2016-04-20T09:17:05.337Z,9507
2016-04-20T09:20:18.268Z,10711
2016-04-20T09:23:31.400Z,8608
2016-04-20T09:26:50.035Z,6168
2016-04-20T09:29:51.872Z,5275
2016-04-20T09:33:04.582Z,5287
2016-04-20T09:36:16.356Z,5796
2016-04-20T09:39:28.771Z,4368
2016-04-20T09:42:47.951Z,8009
2016-04-20T09:45:49.836Z,10314
2016-04-20T09:49:02.626Z,6991
2016-04-20T09:52:15.555Z,6292
2016-04-20T09:55:28.174Z,8877
2016-04-20T09:58:46.635Z,7999
2016-04-20T10:01:54.535Z,9230
2016-04-20T10:04:56.497Z,8178
2016-04-20T10:08:08.942Z,6169
2016-04-20T10:11:21.482Z,8573
2016-04-20T10:14:34.428Z,9403
2016-04-20T10:17:53.361Z,12275
2016-04-20T10:20:55.478Z,10266
2016-04-20T10:24:08.470Z,11543
2016-04-20T10:27:21.602Z,8163
2016-04-20T10:30:34.877Z,9069
2016-04-20T10:33:54.013Z,11432
2016-04-20T10:36:56.129Z,9852
2016-04-20T10:40:09.387Z,8682
2016-04-20T10:43:22.443Z,7670
2016-04-20T10:46:35.342Z,7311
2016-04-20T10:49:54.383Z,7037
2016-04-20T10:52:56.313Z,6696
2016-04-20T10:56:09.025Z,7228
2016-04-20T10:59:21.688Z,6339
2016-04-20T11:02:34.713Z,8053
2016-04-20T11:05:53.707Z,7857
2016-04-20T11:08:55.810Z,9156
2016-04-20T11:12:06.974Z,5801
2016-04-20T11:15:19.779Z,6269
2016-04-20T11:18:32.678Z,8753
2016-04-20T11:21:51.592Z,6711
2016-04-20T11:24:53.494Z,7593
2016-04-20T11:28:06.407Z,6744
2016-04-20T11:31:18.650Z,5901
2016-04-20T11:34:31.815Z,6019
2016-04-20T11:37:52.104Z,6290
2016-04-20T11:40:53.206Z,7559
2016-04-20T11:44:06.388Z,5830
2016-04-20T11:47:19.161Z,3698
2016-04-20T11:50:32.170Z,3826
2016-04-20T11:53:50.975Z,4051
2016-04-20T11:56:53.014Z,4758
2016-04-20T12:00:05.994Z,4437
2016-04-20T12:03:19.001Z,3777
2016-04-20T12:06:33.588Z,3370
2016-04-20T12:09:50.456Z,3078
2016-04-20T12:12:52.527Z,4135
2016-04-20T12:16:05.130Z,3481
2016-04-20T12:19:17.858Z,3730
2016-04-20T12:22:30.881Z,2938
2016-04-20T12:25:49.764Z,2947
2016-04-20T12:28:51.788Z,2796
2016-04-20T12:32:04.563Z,3839
2016-04-20T12:35:17.479Z,3183
2016-04-20T12:38:30.299Z,3268
2016-04-20T12:41:49.136Z,2956
2016-04-20T12:44:51.237Z,2889
2016-04-20T12:48:04.076Z,2871
2016-04-20T12:51:17.069Z,2735
2016-04-20T12:54:30.014Z,3158
2016-04-20T12:57:48.585Z,3076
2016-04-20T13:00:50.593Z,3084
2016-04-20T13:04:03.479Z,3279
2016-04-20T13:07:16.346Z,2551
2016-04-20T13:10:29.245Z,3393
2016-04-20T13:13:48.424Z,3008
2016-04-20T13:16:50.651Z,2729
2016-04-20T13:20:02.318Z,2745
2016-04-20T13:23:12.561Z,2670
2016-04-20T13:26:25.350Z,3635
2016-04-20T13:29:38.389Z,2759
2016-04-20T13:32:51.555Z,2507
2016-04-20T13:36:04.315Z,2814
2016-04-20T13:39:17.463Z,2548
2016-04-20T13:42:30.534Z,2814
2016-04-20T13:45:46.307Z,2658
2016-04-20T13:48:54.519Z,2815
2016-04-20T13:51:56.526Z,4205
2016-04-20T13:55:09.397Z,4925
2016-04-20T13:58:22.593Z,3705
2016-04-20T14:01:35.633Z,2832
2016-04-20T14:04:54.468Z,2642
2016-04-20T14:07:56.617Z,2807
2016-04-20T14:11:09.690Z,2506
2016-04-20T14:14:22.714Z,2568
2016-04-20T14:17:35.721Z,2303
2016-04-20T14:20:54.871Z,2089
2016-04-20T14:23:56.832Z,2276
2016-04-20T14:27:09.718Z,2426
2016-04-20T14:30:22.399Z,2342
2016-04-20T14:33:35.031Z,2199
2016-04-20T14:36:54.039Z,2200
2016-04-20T14:39:56.079Z,2191
2016-04-20T14:43:09.058Z,2143
2016-04-20T14:46:21.973Z,2117
2016-04-20T14:49:35.013Z,2385
2016-04-20T14:52:54.066Z,2213
2016-04-20T14:55:56.185Z,2242
2016-04-20T14:59:09.071Z,2312
2016-04-20T15:02:21.984Z,2202
2016-04-20T15:05:35.023Z,2085
2016-04-20T15:08:53.907Z,1900
2016-04-20T15:11:55.978Z,2211
2016-04-20T15:15:11.019Z,2096
2016-04-20T15:18:22.730Z,2604
2016-04-20T15:21:33.223Z,2456
2016-04-20T15:24:52.121Z,2264
2016-04-20T15:27:54.410Z,2417
2016-04-20T15:31:07.109Z,2890
2016-04-20T15:34:18.476Z,2339
2016-04-20T15:37:29.927Z,2168
2016-04-20T15:40:48.998Z,2522
2016-04-20T15:43:51.116Z,2343
2016-04-20T15:47:04.139Z,2588
2016-04-20T15:50:16.713Z,2668
2016-04-20T15:53:29.580Z,2433
2016-04-20T15:56:48.775Z,2397
2016-04-20T15:59:51.002Z,2431
2016-04-20T16:03:00.749Z,2525
2016-04-20T16:09:26.043Z,1999
2016-04-20T16:12:38.714Z,1793
2016-04-20T16:15:52.339Z,1750
2016-04-20T16:19:04.460Z,1837
2016-04-20T16:22:14.986Z,1822
2016-04-20T16:25:28.010Z,1833
2016-04-20T16:28:47.100Z,1741
2016-04-20T16:31:55.374Z,1583
2016-04-20T16:34:57.398Z,1550
2016-04-20T16:38:10.171Z,1525
2016-04-20T16:41:23.367Z,1504
2016-04-20T16:44:36.315Z,1489
2016-04-20T16:47:55.073Z,1432
2016-04-20T16:50:57.207Z,1402
2016-04-20T16:54:10.230Z,1358
2016-04-20T16:57:21.800Z,1328
2016-04-20T17:00:34.718Z,1293
2016-04-20T17:06:55.546Z,1205
2016-04-20T17:10:08.413Z,1163
2016-04-20T17:13:21.219Z,1105
2016-04-20T17:16:32.305Z,839
2016-04-20T17:19:51.190Z,1003
2016-04-20T17:22:53.199Z,977
2016-04-20T17:26:06.067Z,928
2016-04-20T17:29:19.011Z,869
2016-04-20T17:32:31.957Z,816
2016-04-20T17:35:50.828Z,761
2016-04-20T17:38:52.835Z,705
2016-04-20T17:42:05.891Z,646
2016-04-20T17:45:18.665Z,589
2016-04-20T17:48:31.720Z,535
2016-04-20T17:51:50.746Z,480
2016-04-20T17:54:52.823Z,424
2016-04-20T17:58:05.393Z,366
2016-04-20T18:01:18.275Z,310
2016-04-20T18:04:29.611Z,257
2016-04-20T18:07:48.667Z,208
2016-04-20T18:10:56.581Z,165
2016-04-20T18:13:58.543Z,127
2016-04-20T18:17:11.477Z,93
2016-04-20T18:20:24.328Z,65
2016-04-20T18:23:37.483Z,38
2016-04-20T18:26:56.212Z,28
2016-04-20T18:29:58.205Z,17
2016-04-20T18:33:08.572Z,11
2016-04-20T18:36:21.330Z,6
2016-04-20T18:39:34.229Z,4
2016-04-20T18:42:52.865Z,3
2016-04-20T18:45:54.794Z,1
2016-04-20T18:49:07.693Z,1
2016-04-20T18:52:20.356Z,1
2016-04-20T18:55:33.287Z,1
2016-04-20T18:58:52.189Z,1
2016-04-20T19:01:53.963Z,2
2016-04-20T19:05:07.017Z,2
2016-04-20T19:08:19.587Z,2
2016-04-20T19:11:32.377Z,2
2016-04-20T19:14:50.951Z,2
2016-04-20T19:17:52.848Z,1
2016-04-20T19:21:05.357Z,2
2016-04-20T19:24:18.272Z,1
2016-04-20T19:27:31.014Z,1
2016-04-20T19:30:49.509Z,1
2016-04-20T19:33:51.283Z,2
2016-04-20T19:37:04.057Z,2
2016-04-20T19:40:16.580Z,2
2016-04-20T19:43:29.338Z,2
2016-04-20T19:46:40.862Z,2
2016-04-20T19:49:53.654Z,2
2016-04-20T19:53:06.334Z,2
2016-04-20T19:56:15.858Z,2
2016-04-20T19:59:26.912Z,2
2016-04-20T20:02:39.639Z,2
2016-04-20T20:05:52.572Z,2
2016-04-20T20:09:04.814Z,2
2016-04-20T20:12:17.230Z,2
2016-04-20T20:15:29.877Z,2
2016-04-20T20:18:40.932Z,2
2016-04-20T20:21:52.984Z,2
2016-04-20T20:25:05.625Z,2
2016-04-20T20:28:18.197Z,2
2016-04-20T20:31:30.986Z,2
2016-04-20T20:34:49.168Z,2
2016-04-20T20:37:56.911Z,2
2016-04-20T20:40:58.543Z,2
2016-04-20T20:44:11.239Z,2
2016-04-20T20:47:23.966Z,2
2016-04-20T20:50:36.631Z,2
2016-04-20T20:53:55.001Z,2
2016-04-20T20:56:56.680Z,2
2016-04-20T21:00:09.142Z,2
2016-04-20T21:03:21.290Z,2
2016-04-20T21:06:33.612Z,2
2016-04-20T21:09:52.216Z,2
2016-04-20T21:12:53.724Z,2
2016-04-20T21:16:06.217Z,2
2016-04-20T21:19:15.569Z,2
2016-04-20T21:22:28.701Z,2
2016-04-20T21:25:40.835Z,2
2016-04-20T21:28:53.471Z,2
2016-04-20T21:32:06.088Z,2
2016-04-20T21:35:18.299Z,2
2016-04-20T21:38:30.339Z,2
2016-04-20T21:41:42.268Z,2
2016-04-20T21:44:54.733Z,2
2016-04-20T21:48:07.193Z,2
2016-04-20T21:51:19.624Z,2
2016-04-20T21:54:32.085Z,2
2016-04-20T21:57:49.686Z,2
2016-04-20T22:00:57.243Z,2
2016-04-20T22:03:58.768Z,2
2016-04-20T22:07:11.307Z,2
2016-04-20T22:10:23.956Z,2
2016-04-20T22:13:34.275Z,2
2016-04-20T22:16:52.862Z,2
2016-04-20T22:19:54.373Z,2
2016-04-20T22:23:06.693Z,2
2016-04-20T22:26:19.139Z,2
2016-04-20T22:29:31.757Z,2
2016-04-20T22:32:50.312Z,2
2016-04-20T22:35:57.853Z,5
2016-04-20T22:38:59.487Z,5
2016-04-20T22:42:11.995Z,5
2016-04-20T22:45:24.487Z,5
2016-04-20T22:48:36.744Z,5
2016-04-20T22:51:55.741Z,5
2016-04-20T22:54:56.374Z,5
2016-04-20T22:58:08.600Z,5
2016-04-20T23:01:20.862Z,5
2016-04-20T23:04:33.229Z,5
2016-04-20T23:07:43.675Z,5
2016-04-20T23:10:55.921Z,5
2016-04-20T23:14:08.319Z,5
2016-04-20T23:17:20.171Z,5
2016-04-20T23:20:32.617Z,5
2016-04-20T23:23:51.015Z,5
2016-04-20T23:26:58.432Z,5
2016-04-20T23:29:59.862Z,5
2016-04-20T23:33:12.277Z,5
2016-04-20T23:36:24.691Z,5
2016-04-20T23:39:37.121Z,5
2016-04-20T23:42:55.457Z,5
2016-04-20T23:45:56.858Z,5
2016-04-20T23:49:05.913Z,5
2016-04-20T23:52:18.156Z,5
2016-04-20T23:55:30.414Z,5
2016-04-20T23:58:42.782Z,5
